Portage Lake, Maine
Current Conditions -  °F | °C
As of 10:15 PM on Wednesday 22 Oct 2014 (Local Time) from KPQI Reporting Station
Overcast Overcast  
Wind Chill: 40°   Ceiling: 4300
Heat Index: 45°   Visibility: 10mi
Dew Point: 34°   Wind: 9mph
Humidity: 66%   Direction: 20°NNE
Pressure: 30.29"   Gusts: NA
Location:  46.7854°N, 68.6205°W
Report Text: KPQI 230215Z AUTO 02008KT 10SM SCT034 BKN043 OVC120 07/01 A3029 RMK AO1
Loading
Personal Weather Stations






























Interactive Weather Map
Tropical Storm Tracking
New forecast layout! Learn more

10-Day Weather Forecast

Advertisements
Track Severe Weather on mobile